sensor_id;sensor_type;location;lat;lon;timestamp;pressure;altitude;pressure_sealevel;temperature
32039;BMP280;18549;42.286;22.688;2022-07-10T00:00:46;95527.13;;;21.85
32039;BMP280;18549;42.286;22.688;2022-07-10T00:03:12;95517.81;;;21.86
32039;BMP280;18549;42.286;22.688;2022-07-10T00:05:38;95521.28;;;21.85
32039;BMP280;18549;42.286;22.688;2022-07-10T00:08:07;95522.06;;;21.85
32039;BMP280;18549;42.286;22.688;2022-07-10T00:10:32;95518.00;;;21.84
32039;BMP280;18549;42.286;22.688;2022-07-10T00:13:01;95507.91;;;21.84
32039;BMP280;18549;42.286;22.688;2022-07-10T00:15:27;95510.75;;;21.82
32039;BMP280;18549;42.286;22.688;2022-07-10T00:17:55;95509.19;;;21.81
32039;BMP280;18549;42.286;22.688;2022-07-10T00:20:21;95504.91;;;21.81
32039;BMP280;18549;42.286;22.688;2022-07-10T00:22:47;95507.62;;;21.80
32039;BMP280;18549;42.286;22.688;2022-07-10T00:25:13;95497.34;;;21.81
32039;BMP280;18549;42.286;22.688;2022-07-10T00:27:40;95493.25;;;21.80
32039;BMP280;18549;42.286;22.688;2022-07-10T00:30:07;95499.44;;;21.78
32039;BMP280;18549;42.286;22.688;2022-07-10T00:32:33;95507.31;;;21.75
32039;BMP280;18549;42.286;22.688;2022-07-10T00:34:59;95507.66;;;21.72
32039;BMP280;18549;42.286;22.688;2022-07-10T00:37:25;95505.47;;;21.69
32039;BMP280;18549;42.286;22.688;2022-07-10T00:39:51;95509.09;;;21.66
32039;BMP280;18549;42.286;22.688;2022-07-10T00:42:18;95504.56;;;21.62
32039;BMP280;18549;42.286;22.688;2022-07-10T00:44:44;95497.16;;;21.60
32039;BMP280;18549;42.286;22.688;2022-07-10T00:47:11;95501.75;;;21.57
32039;BMP280;18549;42.286;22.688;2022-07-10T00:49:38;95506.66;;;21.51
32039;BMP280;18549;42.286;22.688;2022-07-10T00:52:10;95506.19;;;21.47
32039;BMP280;18549;42.286;22.688;2022-07-10T00:54:37;95504.34;;;21.41
32039;BMP280;18549;42.286;22.688;2022-07-10T00:57:05;95507.66;;;21.42
32039;BMP280;18549;42.286;22.688;2022-07-10T00:59:32;95494.88;;;21.43
32039;BMP280;18549;42.286;22.688;2022-07-10T01:01:58;95510.44;;;21.47
32039;BMP280;18549;42.286;22.688;2022-07-10T01:04:25;95507.16;;;21.46
32039;BMP280;18549;42.286;22.688;2022-07-10T01:06:51;95511.91;;;21.41
32039;BMP280;18549;42.286;22.688;2022-07-10T01:09:17;95497.56;;;21.42
32039;BMP280;18549;42.286;22.688;2022-07-10T01:11:43;95495.66;;;21.44
32039;BMP280;18549;42.286;22.688;2022-07-10T01:14:10;95499.44;;;21.40
32039;BMP280;18549;42.286;22.688;2022-07-10T01:16:37;95493.91;;;21.44
32039;BMP280;18549;42.286;22.688;2022-07-10T01:19:03;95492.03;;;21.38
32039;BMP280;18549;42.286;22.688;2022-07-10T01:21:29;95494.25;;;21.33
32039;BMP280;18549;42.286;22.688;2022-07-10T01:23:57;95482.25;;;21.35
32039;BMP280;18549;42.286;22.688;2022-07-10T01:26:23;95475.97;;;21.31
32039;BMP280;18549;42.286;22.688;2022-07-10T01:28:50;95479.44;;;21.30
32039;BMP280;18549;42.286;22.688;2022-07-10T01:31:20;95473.00;;;21.28
32039;BMP280;18549;42.286;22.688;2022-07-10T01:33:46;95481.34;;;21.28
32039;BMP280;18549;42.286;22.688;2022-07-10T01:36:12;95471.59;;;21.25
32039;BMP280;18549;42.286;22.688;2022-07-10T01:38:39;95481.87;;;21.16
32039;BMP280;18549;42.286;22.688;2022-07-10T01:41:08;95484.69;;;21.13
32039;BMP280;18549;42.286;22.688;2022-07-10T01:43:35;95486.28;;;21.14
32039;BMP280;18549;42.286;22.688;2022-07-10T01:46:02;95477.16;;;21.13
32039;BMP280;18549;42.286;22.688;2022-07-10T01:48:30;95480.63;;;21.12
32039;BMP280;18549;42.286;22.688;2022-07-10T01:50:56;95476.03;;;21.16
32039;BMP280;18549;42.286;22.688;2022-07-10T01:53:22;95473.50;;;21.16
32039;BMP280;18549;42.286;22.688;2022-07-10T01:55:48;95474.81;;;21.12
32039;BMP280;18549;42.286;22.688;2022-07-10T01:58:13;95473.22;;;21.11
32039;BMP280;18549;42.286;22.688;2022-07-10T02:00:39;95466.63;;;21.10
32039;BMP280;18549;42.286;22.688;2022-07-10T02:03:05;95472.44;;;21.10
32039;BMP280;18549;42.286;22.688;2022-07-10T02:05:49;95460.94;;;21.08
32039;BMP280;18549;42.286;22.688;2022-07-10T02:08:15;95457.66;;;21.07
32039;BMP280;18549;42.286;22.688;2022-07-10T02:10:41;95453.72;;;21.05
32039;BMP280;18549;42.286;22.688;2022-07-10T02:13:07;95455.91;;;21.08
32039;BMP280;18549;42.286;22.688;2022-07-10T02:15:33;95456.88;;;21.07
32039;BMP280;18549;42.286;22.688;2022-07-10T02:17:59;95455.12;;;21.07
32039;BMP280;18549;42.286;22.688;2022-07-10T02:20:25;95452.91;;;21.04
32039;BMP280;18549;42.286;22.688;2022-07-10T02:22:51;95444.13;;;21.00
32039;BMP280;18549;42.286;22.688;2022-07-10T02:25:17;95447.09;;;21.04
32039;BMP280;18549;42.286;22.688;2022-07-10T02:27:43;95452.47;;;21.01
32039;BMP280;18549;42.286;22.688;2022-07-10T02:30:09;95451.84;;;20.99
32039;BMP280;18549;42.286;22.688;2022-07-10T02:32:34;95457.84;;;20.98
32039;BMP280;18549;42.286;22.688;2022-07-10T02:35:00;95450.44;;;20.96
32039;BMP280;18549;42.286;22.688;2022-07-10T02:37:26;95450.91;;;20.92
32039;BMP280;18549;42.286;22.688;2022-07-10T02:39:52;95438.31;;;20.92
32039;BMP280;18549;42.286;22.688;2022-07-10T02:42:19;95448.41;;;20.92
32039;BMP280;18549;42.286;22.688;2022-07-10T02:44:45;95452.19;;;20.88
32039;BMP280;18549;42.286;22.688;2022-07-10T02:47:11;95460.06;;;20.85
32039;BMP280;18549;42.286;22.688;2022-07-10T02:49:37;95464.47;;;20.83
32039;BMP280;18549;42.286;22.688;2022-07-10T02:52:03;95462.94;;;20.74
32039;BMP280;18549;42.286;22.688;2022-07-10T02:54:29;95463.75;;;20.67
32039;BMP280;18549;42.286;22.688;2022-07-10T02:56:55;95473.66;;;20.68
32039;BMP280;18549;42.286;22.688;2022-07-10T02:59:21;95476.47;;;20.65
32039;BMP280;18549;42.286;22.688;2022-07-10T03:01:46;95483.44;;;20.63
32039;BMP280;18549;42.286;22.688;2022-07-10T03:04:12;95473.66;;;20.60
32039;BMP280;18549;42.286;22.688;2022-07-10T03:06:39;95468.81;;;20.59
32039;BMP280;18549;42.286;22.688;2022-07-10T03:09:06;95468.31;;;20.63
32039;BMP280;18549;42.286;22.688;2022-07-10T03:11:32;95473.19;;;20.65
32039;BMP280;18549;42.286;22.688;2022-07-10T03:13:58;95472.72;;;20.69
32039;BMP280;18549;42.286;22.688;2022-07-10T03:16:23;95467.97;;;20.74
32039;BMP280;18549;42.286;22.688;2022-07-10T03:18:49;95471.91;;;20.77
32039;BMP280;18549;42.286;22.688;2022-07-10T03:21:15;95474.41;;;20.77
32039;BMP280;18549;42.286;22.688;2022-07-10T03:23:41;95473.16;;;20.81
32039;BMP280;18549;42.286;22.688;2022-07-10T03:26:06;95471.13;;;20.84
32039;BMP280;18549;42.286;22.688;2022-07-10T03:28:34;95468.25;;;20.87
32039;BMP280;18549;42.286;22.688;2022-07-10T03:31:01;95470.00;;;20.86
32039;BMP280;18549;42.286;22.688;2022-07-10T03:33:27;95464.00;;;20.87
32039;BMP280;18549;42.286;22.688;2022-07-10T03:35:54;95468.13;;;20.88
32039;BMP280;18549;42.286;22.688;2022-07-10T03:38:20;95467.31;;;20.88
32039;BMP280;18549;42.286;22.688;2022-07-10T03:40:46;95473.31;;;20.87
32039;BMP280;18549;42.286;22.688;2022-07-10T03:43:16;95472.66;;;20.85
32039;BMP280;18549;42.286;22.688;2022-07-10T03:45:42;95470.00;;;20.86
32039;BMP280;18549;42.286;22.688;2022-07-10T03:48:08;95472.34;;;20.88
32039;BMP280;18549;42.286;22.688;2022-07-10T03:50:33;95475.53;;;20.74
32039;BMP280;18549;42.286;22.688;2022-07-10T03:52:59;95471.78;;;20.62
32039;BMP280;18549;42.286;22.688;2022-07-10T03:55:25;95478.88;;;20.59
32039;BMP280;18549;42.286;22.688;2022-07-10T03:57:51;95473.03;;;20.58
32039;BMP280;18549;42.286;22.688;2022-07-10T04:00:26;95472.72;;;20.61
32039;BMP280;18549;42.286;22.688;2022-07-10T04:02:57;95470.81;;;20.55
32039;BMP280;18549;42.286;22.688;2022-07-10T04:05:24;95470.34;;;20.52
32039;BMP280;18549;42.286;22.688;2022-07-10T04:07:51;95473.81;;;20.51
32039;BMP280;18549;42.286;22.688;2022-07-10T04:10:18;95476.78;;;20.47
32039;BMP280;18549;42.286;22.688;2022-07-10T04:12:44;95474.13;;;20.40
32039;BMP280;18549;42.286;22.688;2022-07-10T04:15:11;95477.75;;;20.38
32039;BMP280;18549;42.286;22.688;2022-07-10T04:17:36;95474.13;;;20.40
32039;BMP280;18549;42.286;22.688;2022-07-10T04:20:03;95471.94;;;20.45
32039;BMP280;18549;42.286;22.688;2022-07-10T04:22:29;95474.13;;;20.48
32039;BMP280;18549;42.286;22.688;2022-07-10T04:24:55;95475.69;;;20.49
32039;BMP280;18549;42.286;22.688;2022-07-10T04:27:21;95467.66;;;20.53
32039;BMP280;18549;42.286;22.688;2022-07-10T04:29:48;95464.22;;;20.62
32039;BMP280;18549;42.286;22.688;2022-07-10T04:32:15;95474.44;;;20.53
32039;BMP280;18549;42.286;22.688;2022-07-10T04:34:41;95473.97;;;20.57
32039;BMP280;18549;42.286;22.688;2022-07-10T04:37:07;95466.56;;;20.56
32039;BMP280;18549;42.286;22.688;2022-07-10T04:39:38;95470.22;;;20.61
32039;BMP280;18549;42.286;22.688;2022-07-10T04:42:05;95476.03;;;20.62
32039;BMP280;18549;42.286;22.688;2022-07-10T04:44:32;95475.84;;;20.55
32039;BMP280;18549;42.286;22.688;2022-07-10T04:46:58;95480.09;;;20.63
32039;BMP280;18549;42.286;22.688;2022-07-10T04:49:24;95465.78;;;20.71
32039;BMP280;18549;42.286;22.688;2022-07-10T04:51:50;95469.72;;;20.74
32039;BMP280;18549;42.286;22.688;2022-07-10T04:54:16;95477.75;;;20.77
32039;BMP280;18549;42.286;22.688;2022-07-10T04:56:42;95484.31;;;20.86
32039;BMP280;18549;42.286;22.688;2022-07-10T04:59:09;95476.16;;;20.84
32039;BMP280;18549;42.286;22.688;2022-07-10T05:01:35;95479.59;;;20.83
32039;BMP280;18549;42.286;22.688;2022-07-10T05:04:03;95469.56;;;20.75
32039;BMP280;18549;42.286;22.688;2022-07-10T05:06:30;95477.59;;;20.71
32039;BMP280;18549;42.286;22.688;2022-07-10T05:08:56;95468.63;;;20.68
32039;BMP280;18549;42.286;22.688;2022-07-10T05:11:22;95471.28;;;20.75
32039;BMP280;18549;42.286;22.688;2022-07-10T05:13:48;95480.87;;;20.79
32039;BMP280;18549;42.286;22.688;2022-07-10T05:16:15;95473.44;;;20.85
32039;BMP280;18549;42.286;22.688;2022-07-10T05:18:41;95476.94;;;20.84
32039;BMP280;18549;42.286;22.688;2022-07-10T05:21:07;95481.00;;;20.93
32039;BMP280;18549;42.286;22.688;2022-07-10T05:23:35;95471.84;;;21.00
32039;BMP280;18549;42.286;22.688;2022-07-10T05:26:00;95475.44;;;21.06
32039;BMP280;18549;42.286;22.688;2022-07-10T05:28:26;95472.59;;;21.09
32039;BMP280;18549;42.286;22.688;2022-07-10T05:30:52;95469.00;;;21.11
32039;BMP280;18549;42.286;22.688;2022-07-10T05:33:19;95469.44;;;21.15
32039;BMP280;18549;42.286;22.688;2022-07-10T05:35:45;95471.31;;;21.20
32039;BMP280;18549;42.286;22.688;2022-07-10T05:38:10;95475.34;;;21.29
32039;BMP280;18549;42.286;22.688;2022-07-10T05:40:37;95471.88;;;21.30
32039;BMP280;18549;42.286;22.688;2022-07-10T05:43:03;95466.22;;;21.28
32039;BMP280;18549;42.286;22.688;2022-07-10T05:45:29;95462.91;;;21.36
32039;BMP280;18549;42.286;22.688;2022-07-10T05:47:56;95462.88;;;21.44
32039;BMP280;18549;42.286;22.688;2022-07-10T05:50:22;95458.28;;;21.47
32039;BMP280;18549;42.286;22.688;2022-07-10T05:52:48;95449.28;;;21.52
32039;BMP280;18549;42.286;22.688;2022-07-10T05:55:13;95457.13;;;21.57
32039;BMP280;18549;42.286;22.688;2022-07-10T05:57:40;95457.41;;;21.62
32039;BMP280;18549;42.286;22.688;2022-07-10T06:00:08;95450.75;;;21.69
32039;BMP280;18549;42.286;22.688;2022-07-10T06:02:34;95457.34;;;21.70
32039;BMP280;18549;42.286;22.688;2022-07-10T06:05:00;95454.25;;;21.68
32039;BMP280;18549;42.286;22.688;2022-07-10T06:07:26;95450.75;;;21.69
32039;BMP280;18549;42.286;22.688;2022-07-10T06:09:53;95442.84;;;21.72
32039;BMP280;18549;42.286;22.688;2022-07-10T06:12:20;95448.84;;;21.71
32039;BMP280;18549;42.286;22.688;2022-07-10T06:14:46;95443.31;;;21.76
32039;BMP280;18549;42.286;22.688;2022-07-10T06:17:12;95445.47;;;21.79
32039;BMP280;18549;42.286;22.688;2022-07-10T06:19:39;95444.81;;;21.84
32039;BMP280;18549;42.286;22.688;2022-07-10T06:22:05;95438.47;;;21.88
32039;BMP280;18549;42.286;22.688;2022-07-10T06:24:49;95438.88;;;21.78
32039;BMP280;18549;42.286;22.688;2022-07-10T06:27:15;95443.25;;;21.83
32039;BMP280;18549;42.286;22.688;2022-07-10T06:29:41;95428.87;;;21.84
32039;BMP280;18549;42.286;22.688;2022-07-10T06:32:07;95431.38;;;21.92
32039;BMP280;18549;42.286;22.688;2022-07-10T06:34:33;95431.91;;;22.02
32039;BMP280;18549;42.286;22.688;2022-07-10T06:36:59;95425.41;;;22.07
32039;BMP280;18549;42.286;22.688;2022-07-10T06:39:25;95426.97;;;22.08
32039;BMP280;18549;42.286;22.688;2022-07-10T06:41:51;95422.50;;;22.18
32039;BMP280;18549;42.286;22.688;2022-07-10T06:44:17;95431.53;;;22.13
32039;BMP280;18549;42.286;22.688;2022-07-10T06:46:43;95423.31;;;22.18
32039;BMP280;18549;42.286;22.688;2022-07-10T06:49:29;95427.03;;;22.22
32039;BMP280;18549;42.286;22.688;2022-07-10T06:51:55;95415.56;;;22.34
32039;BMP280;18549;42.286;22.688;2022-07-10T06:54:21;95419.16;;;22.40
32039;BMP280;18549;42.286;22.688;2022-07-10T06:56:48;95424.47;;;22.45
32039;BMP280;18549;42.286;22.688;2022-07-10T06:59:14;95421.44;;;22.49
32039;BMP280;18549;42.286;22.688;2022-07-10T07:01:41;95417.88;;;22.58
32039;BMP280;18549;42.286;22.688;2022-07-10T07:04:07;95413.34;;;22.53
32039;BMP280;18549;42.286;22.688;2022-07-10T07:06:33;95416.22;;;22.65
32039;BMP280;18549;42.286;22.688;2022-07-10T07:08:58;95416.31;;;22.71
32039;BMP280;18549;42.286;22.688;2022-07-10T07:11:24;95418.50;;;22.74
32039;BMP280;18549;42.286;22.688;2022-07-10T07:13:50;95416.22;;;22.79
32039;BMP280;18549;42.286;22.688;2022-07-10T07:16:16;95404.84;;;22.83
32039;BMP280;18549;42.286;22.688;2022-07-10T07:18:45;95403.97;;;22.90
32039;BMP280;18549;42.286;22.688;2022-07-10T07:21:17;95403.53;;;22.87
32039;BMP280;18549;42.286;22.688;2022-07-10T07:24:02;95401.53;;;22.97
32039;BMP280;18549;42.286;22.688;2022-07-10T07:26:29;95402.38;;;23.04
32039;BMP280;18549;42.286;22.688;2022-07-10T07:28:56;95397.50;;;23.17
32039;BMP280;18549;42.286;22.688;2022-07-10T07:31:21;95408.19;;;23.18
32039;BMP280;18549;42.286;22.688;2022-07-10T07:33:47;95395.63;;;23.25
32039;BMP280;18549;42.286;22.688;2022-07-10T07:36:13;95396.47;;;23.32
32039;BMP280;18549;42.286;22.688;2022-07-10T07:38:39;95393.41;;;23.36
32039;BMP280;18549;42.286;22.688;2022-07-10T07:41:05;95394.28;;;23.43
32039;BMP280;18549;42.286;22.688;2022-07-10T07:43:31;95391.81;;;23.50
32039;BMP280;18549;42.286;22.688;2022-07-10T07:45:57;95393.91;;;23.46
32039;BMP280;18549;42.286;22.688;2022-07-10T07:48:23;95395.31;;;23.49
32039;BMP280;18549;42.286;22.688;2022-07-10T07:50:49;95390.56;;;23.60
32039;BMP280;18549;42.286;22.688;2022-07-10T07:53:15;95390.84;;;23.65
32039;BMP280;18549;42.286;22.688;2022-07-10T07:55:41;95396.75;;;23.72
32039;BMP280;18549;42.286;22.688;2022-07-10T07:58:07;95395.69;;;23.66
32039;BMP280;18549;42.286;22.688;2022-07-10T08:00:33;95398.84;;;23.68
32039;BMP280;18549;42.286;22.688;2022-07-10T08:02:59;95391.72;;;23.78
32039;BMP280;18549;42.286;22.688;2022-07-10T08:05:26;95375.66;;;23.85
32039;BMP280;18549;42.286;22.688;2022-07-10T08:07:54;95377.97;;;23.87
32039;BMP280;18549;42.286;22.688;2022-07-10T08:10:23;95381.56;;;23.92
32039;BMP280;18549;42.286;22.688;2022-07-10T08:12:49;95378.28;;;23.98
32039;BMP280;18549;42.286;22.688;2022-07-10T08:15:17;95376.56;;;24.05
32039;BMP280;18549;42.286;22.688;2022-07-10T08:17:50;95381.16;;;24.16
32039;BMP280;18549;42.286;22.688;2022-07-10T08:20:17;95383.22;;;24.06
32039;BMP280;18549;42.286;22.688;2022-07-10T08:22:43;95382.34;;;24.20
32039;BMP280;18549;42.286;22.688;2022-07-10T08:25:10;95385.38;;;24.30
32039;BMP280;18549;42.286;22.688;2022-07-10T08:27:36;95384.88;;;24.41
32039;BMP280;18549;42.286;22.688;2022-07-10T08:30:05;95387.84;;;24.51
32039;BMP280;18549;42.286;22.688;2022-07-10T08:32:31;95388.44;;;24.52
32039;BMP280;18549;42.286;22.688;2022-07-10T08:34:58;95376.75;;;24.52
32039;BMP280;18549;42.286;22.688;2022-07-10T08:37:25;95375.37;;;24.49
32039;BMP280;18549;42.286;22.688;2022-07-10T08:39:52;95370.66;;;24.46
32039;BMP280;18549;42.286;22.688;2022-07-10T08:42:20;95382.19;;;24.49
32039;BMP280;18549;42.286;22.688;2022-07-10T08:44:47;95379.28;;;24.52
32039;BMP280;18549;42.286;22.688;2022-07-10T08:47:14;95380.34;;;24.63
32039;BMP280;18549;42.286;22.688;2022-07-10T08:49:48;95382.87;;;24.63
32039;BMP280;18549;42.286;22.688;2022-07-10T08:52:25;95372.34;;;24.66
32039;BMP280;18549;42.286;22.688;2022-07-10T08:54:54;95380.94;;;24.65
32039;BMP280;18549;42.286;22.688;2022-07-10T08:57:41;95385.19;;;24.58
32039;BMP280;18549;42.286;22.688;2022-07-10T09:00:09;95379.91;;;24.53
32039;BMP280;18549;42.286;22.688;2022-07-10T09:02:35;95382.81;;;24.57
32039;BMP280;18549;42.286;22.688;2022-07-10T09:05:02;95368.41;;;24.57
32039;BMP280;18549;42.286;22.688;2022-07-10T09:07:36;95376.47;;;24.67
32039;BMP280;18549;42.286;22.688;2022-07-10T09:10:07;95377.19;;;24.61
32039;BMP280;18549;42.286;22.688;2022-07-10T09:12:57;95365.13;;;24.63
32039;BMP280;18549;42.286;22.688;2022-07-10T09:15:31;95373.47;;;24.57
32039;BMP280;18549;42.286;22.688;2022-07-10T09:18:05;95360.97;;;24.50
32039;BMP280;18549;42.286;22.688;2022-07-10T09:20:34;95362.34;;;24.52
32039;BMP280;18549;42.286;22.688;2022-07-10T09:23:21;95363.50;;;24.50
32039;BMP280;18549;42.286;22.688;2022-07-10T09:25:50;95368.72;;;24.48
32039;BMP280;18549;42.286;22.688;2022-07-10T09:28:18;95366.63;;;24.58
32039;BMP280;18549;42.286;22.688;2022-07-10T09:30:45;95357.56;;;24.76
32039;BMP280;18549;42.286;22.688;2022-07-10T09:43:51;95347.53;;;25.48
32039;BMP280;18549;42.286;22.688;2022-07-10T09:46:19;95350.66;;;25.50
32039;BMP280;18549;42.286;22.688;2022-07-10T09:48:47;95354.00;;;25.57
32039;BMP280;18549;42.286;22.688;2022-07-10T09:51:12;95358.31;;;25.56
32039;BMP280;18549;42.286;22.688;2022-07-10T09:53:43;95337.59;;;25.53
32039;BMP280;18549;42.286;22.688;2022-07-10T09:56:11;95353.00;;;25.45
32039;BMP280;18549;42.286;22.688;2022-07-10T09:58:38;95346.53;;;25.49
32039;BMP280;18549;42.286;22.688;2022-07-10T10:01:05;95355.72;;;25.44
32039;BMP280;18549;42.286;22.688;2022-07-10T10:03:36;95354.88;;;25.18
32039;BMP280;18549;42.286;22.688;2022-07-10T10:06:14;95355.25;;;25.21
32039;BMP280;18549;42.286;22.688;2022-07-10T10:11:13;95348.16;;;25.63
32039;BMP280;18549;42.286;22.688;2022-07-10T10:13:41;95354.25;;;25.75
32039;BMP280;18549;42.286;22.688;2022-07-10T10:16:09;95354.44;;;25.92
32039;BMP280;18549;42.286;22.688;2022-07-10T10:18:36;95354.03;;;26.08
32039;BMP280;18549;42.286;22.688;2022-07-10T10:21:03;95355.25;;;26.19
32039;BMP280;18549;42.286;22.688;2022-07-10T10:23:32;95353.28;;;26.20
32039;BMP280;18549;42.286;22.688;2022-07-10T10:25:59;95350.53;;;26.35
32039;BMP280;18549;42.286;22.688;2022-07-10T10:28:26;95346.63;;;26.39
32039;BMP280;18549;42.286;22.688;2022-07-10T10:30:54;95352.06;;;26.42
32039;BMP280;18549;42.286;22.688;2022-07-10T10:36:01;95336.75;;;26.74
32039;BMP280;18549;42.286;22.688;2022-07-10T10:41:37;95332.53;;;26.43
32039;BMP280;18549;42.286;22.688;2022-07-10T10:49:17;95329.41;;;26.15
32039;BMP280;18549;42.286;22.688;2022-07-10T10:52:09;95332.34;;;26.06
32039;BMP280;18549;42.286;22.688;2022-07-10T11:00:30;95323.38;;;26.03
32039;BMP280;18549;42.286;22.688;2022-07-10T11:03:22;95330.41;;;26.01
32039;BMP280;18549;42.286;22.688;2022-07-10T11:05:49;95315.16;;;26.01
32039;BMP280;18549;42.286;22.688;2022-07-10T11:08:36;95317.88;;;26.13
32039;BMP280;18549;42.286;22.688;2022-07-10T11:11:43;95318.91;;;26.18
32039;BMP280;18549;42.286;22.688;2022-07-10T11:14:09;95312.44;;;26.22
32039;BMP280;18549;42.286;22.688;2022-07-10T11:16:35;95316.53;;;26.29
32039;BMP280;18549;42.286;22.688;2022-07-10T11:19:01;95311.47;;;26.23
32039;BMP280;18549;42.286;22.688;2022-07-10T11:21:28;95308.16;;;26.22
32039;BMP280;18549;42.286;22.688;2022-07-10T11:24:10;95308.53;;;26.19
32039;BMP280;18549;42.286;22.688;2022-07-10T11:26:58;95307.94;;;26.24
32039;BMP280;18549;42.286;22.688;2022-07-10T11:29:24;95304.22;;;26.20
32039;BMP280;18549;42.286;22.688;2022-07-10T11:31:54;95302.84;;;26.24
32039;BMP280;18549;42.286;22.688;2022-07-10T11:34:21;95307.75;;;26.32
32039;BMP280;18549;42.286;22.688;2022-07-10T11:36:48;95316.50;;;26.36
32039;BMP280;18549;42.286;22.688;2022-07-10T11:39:14;95307.34;;;26.35
32039;BMP280;18549;42.286;22.688;2022-07-10T11:41:44;95311.25;;;26.24
32039;BMP280;18549;42.286;22.688;2022-07-10T11:44:17;95318.31;;;26.16
32039;BMP280;18549;42.286;22.688;2022-07-10T11:46:45;95312.25;;;26.04
32039;BMP280;18549;42.286;22.688;2022-07-10T11:49:14;95320.66;;;25.98
32039;BMP280;18549;42.286;22.688;2022-07-10T11:51:41;95318.69;;;26.00
32039;BMP280;18549;42.286;22.688;2022-07-10T11:54:13;95321.63;;;25.97
32039;BMP280;18549;42.286;22.688;2022-07-10T11:56:46;95322.41;;;25.85
32039;BMP280;18549;42.286;22.688;2022-07-10T11:59:14;95325.91;;;25.97
32039;BMP280;18549;42.286;22.688;2022-07-10T12:01:45;95323.00;;;25.93
32039;BMP280;18549;42.286;22.688;2022-07-10T12:04:11;95315.56;;;25.98
32039;BMP280;18549;42.286;22.688;2022-07-10T12:06:39;95319.28;;;26.02
32039;BMP280;18549;42.286;22.688;2022-07-10T12:09:10;95326.09;;;26.02
32039;BMP280;18549;42.286;22.688;2022-07-10T12:11:36;95325.31;;;26.01
32039;BMP280;18549;42.286;22.688;2022-07-10T12:14:20;95319.88;;;26.04
32039;BMP280;18549;42.286;22.688;2022-07-10T12:16:50;95321.78;;;26.09
32039;BMP280;18549;42.286;22.688;2022-07-10T12:19:25;95323.56;;;26.02
32039;BMP280;18549;42.286;22.688;2022-07-10T12:21:53;95323.78;;;26.07
32039;BMP280;18549;42.286;22.688;2022-07-10T12:24:20;95327.50;;;26.17
32039;BMP280;18549;42.286;22.688;2022-07-10T12:26:46;95318.88;;;26.37
32039;BMP280;18549;42.286;22.688;2022-07-10T12:29:21;95310.41;;;26.50
32039;BMP280;18549;42.286;22.688;2022-07-10T12:31:49;95307.41;;;26.72
32039;BMP280;18549;42.286;22.688;2022-07-10T12:34:17;95310.88;;;26.96
32039;BMP280;18549;42.286;22.688;2022-07-10T12:36:53;95300.22;;;27.19
32039;BMP280;18549;42.286;22.688;2022-07-10T12:39:24;95308.75;;;27.30
32039;BMP280;18549;42.286;22.688;2022-07-10T12:42:04;95312.06;;;27.37
32039;BMP280;18549;42.286;22.688;2022-07-10T12:47:06;95311.00;;;27.51
32039;BMP280;18549;42.286;22.688;2022-07-10T12:55:11;95313.50;;;27.82
32039;BMP280;18549;42.286;22.688;2022-07-10T12:57:58;95301.91;;;27.86
32039;BMP280;18549;42.286;22.688;2022-07-10T13:00:33;95316.62;;;27.84
32039;BMP280;18549;42.286;22.688;2022-07-10T13:03:07;95309.84;;;27.78
32039;BMP280;18549;42.286;22.688;2022-07-10T13:08:19;95313.09;;;27.85
32039;BMP280;18549;42.286;22.688;2022-07-10T13:10:58;95308.31;;;27.94
32039;BMP280;18549;42.286;22.688;2022-07-10T13:13:24;95310.38;;;27.80
32039;BMP280;18549;42.286;22.688;2022-07-10T13:15:53;95315.75;;;27.72
32039;BMP280;18549;42.286;22.688;2022-07-10T13:18:24;95311.53;;;27.59
32039;BMP280;18549;42.286;22.688;2022-07-10T13:20:54;95304.91;;;27.52
32039;BMP280;18549;42.286;22.688;2022-07-10T13:23:21;95300.81;;;27.51
32039;BMP280;18549;42.286;22.688;2022-07-10T13:25:52;95294.56;;;27.47
32039;BMP280;18549;42.286;22.688;2022-07-10T13:28:18;95304.19;;;27.39
32039;BMP280;18549;42.286;22.688;2022-07-10T13:30:45;95299.94;;;27.26
32039;BMP280;18549;42.286;22.688;2022-07-10T13:33:11;95299.38;;;27.24
32039;BMP280;18549;42.286;22.688;2022-07-10T13:35:38;95294.88;;;27.26
32039;BMP280;18549;42.286;22.688;2022-07-10T13:38:04;95289.34;;;27.29
32039;BMP280;18549;42.286;22.688;2022-07-10T13:40:32;95289.94;;;27.31
32039;BMP280;18549;42.286;22.688;2022-07-10T13:42:59;95291.69;;;27.37
32039;BMP280;18549;42.286;22.688;2022-07-10T13:45:26;95289.31;;;27.36
32039;BMP280;18549;42.286;22.688;2022-07-10T13:47:56;95291.13;;;27.29
32039;BMP280;18549;42.286;22.688;2022-07-10T13:50:22;95288.78;;;27.27
32039;BMP280;18549;42.286;22.688;2022-07-10T13:52:50;95294.28;;;27.24
32039;BMP280;18549;42.286;22.688;2022-07-10T13:55:19;95292.94;;;27.22
32039;BMP280;18549;42.286;22.688;2022-07-10T13:57:44;95288.03;;;27.20
32039;BMP280;18549;42.286;22.688;2022-07-10T14:00:10;95295.66;;;27.20
32039;BMP280;18549;42.286;22.688;2022-07-10T14:02:37;95294.88;;;27.26
32039;BMP280;18549;42.286;22.688;2022-07-10T14:05:05;95297.81;;;27.23
32039;BMP280;18549;42.286;22.688;2022-07-10T14:07:33;95296.53;;;27.08
32039;BMP280;18549;42.286;22.688;2022-07-10T14:10:00;95288.13;;;27.08
32039;BMP280;18549;42.286;22.688;2022-07-10T14:12:26;95291.56;;;27.19
32039;BMP280;18549;42.286;22.688;2022-07-10T14:14:53;95297.13;;;27.10
32039;BMP280;18549;42.286;22.688;2022-07-10T14:17:19;95282.66;;;27.04
32039;BMP280;18549;42.286;22.688;2022-07-10T14:19:46;95290.28;;;27.04
32039;BMP280;18549;42.286;22.688;2022-07-10T14:22:12;95288.31;;;27.06
32039;BMP280;18549;42.286;22.688;2022-07-10T14:24:38;95288.53;;;27.05
32039;BMP280;18549;42.286;22.688;2022-07-10T14:27:04;95287.97;;;27.03
32039;BMP280;18549;42.286;22.688;2022-07-10T14:29:29;95294.78;;;27.02
32039;BMP280;18549;42.286;22.688;2022-07-10T14:31:55;95293.41;;;27.06
32039;BMP280;18549;42.286;22.688;2022-07-10T14:34:23;95299.06;;;27.08
32039;BMP280;18549;42.286;22.688;2022-07-10T14:36:53;95294.62;;;26.97
32039;BMP280;18549;42.286;22.688;2022-07-10T14:39:19;95288.19;;;26.95
32039;BMP280;18549;42.286;22.688;2022-07-10T14:41:45;95292.31;;;26.96